Time,TemperatureF,DewpointF,PressureIn,WindDirection,WindDirectionDegrees,WindSpeedMPH,WindSpeedGustMPH,Humidity,HourlyPrecipIn,Conditions,Clouds,dailyrainin,SoftwareType,DateUTC
2013-01-30 00:00:00,47.0,45.9,30.02,South,180,2.0,2.0,96,0.00,,,0.00,Wunderground v.1.15,2013-01-30 05:00:00,
2013-01-30 00:05:00,47.3,46.2,30.02,South,183,2.0,13.0,96,0.00,,,0.00,Wunderground v.1.15,2013-01-30 05:05:00,
2013-01-30 00:10:00,47.4,46.3,30.01,SSW,208,3.0,13.0,96,0.00,,,0.00,Wunderground v.1.15,2013-01-30 05:10:00,
2013-01-30 00:20:00,47.7,46.6,30.01,SSE,157,4.0,4.0,96,0.00,,,0.00,Wunderground v.1.15,2013-01-30 05:20:00,
2013-01-30 00:25:00,47.5,46.4,30.01,South,170,4.0,7.0,96,0.00,,,0.00,Wunderground v.1.15,2013-01-30 05:25:00,
2013-01-30 00:30:00,47.4,46.3,30.01,SSE,160,4.0,4.0,96,0.00,,,0.00,Wunderground v.1.15,2013-01-30 05:30:00,
2013-01-30 00:35:00,47.3,46.2,30.01,SE,138,3.0,13.0,96,0.00,,,0.00,Wunderground v.1.15,2013-01-30 05:35:00,
2013-01-30 00:40:00,47.3,46.2,30.01,SSW,194,2.0,13.0,96,0.00,,,0.00,Wunderground v.1.15,2013-01-30 05:40:00,
2013-01-30 00:50:00,47.2,46.1,30.00,SE,127,3.0,3.0,96,0.00,,,0.00,Wunderground v.1.15,2013-01-30 05:50:00,
2013-01-30 00:55:00,47.2,46.4,29.99,SSW,196,2.0,13.0,97,0.00,,,0.00,Wunderground v.1.15,2013-01-30 05:55:00,
2013-01-30 01:00:00,47.2,46.4,29.99,SSW,203,2.0,13.0,97,0.00,,,0.00,Wunderground v.1.15,2013-01-30 06:00:00,
2013-01-30 01:05:00,47.2,46.4,29.98,SSE,159,3.0,13.0,97,0.00,,,0.00,Wunderground v.1.15,2013-01-30 06:05:00,
2013-01-30 01:15:00,47.4,46.6,29.98,South,183,2.0,13.0,97,0.00,,,0.00,Wunderground v.1.15,2013-01-30 06:15:00,
2013-01-30 01:20:00,47.8,47.0,29.98,ESE,102,3.0,3.0,97,0.00,,,0.00,Wunderground v.1.15,2013-01-30 06:20:00,
2013-01-30 01:25:00,48.1,47.3,29.98,SSE,148,3.0,13.0,97,0.00,,,0.00,Wunderground v.1.15,2013-01-30 06:25:00,
2013-01-30 01:35:00,48.5,47.7,29.99,SE,131,3.0,13.0,97,0.00,,,0.00,Wunderground v.1.15,2013-01-30 06:35:00,
2013-01-30 01:40:00,48.8,48.0,29.98,South,183,3.0,15.0,97,0.00,,,0.00,Wunderground v.1.15,2013-01-30 06:40:00,
2013-01-30 01:45:00,49.0,48.2,29.98,SSE,164,4.0,15.0,97,0.00,,,0.00,Wunderground v.1.15,2013-01-30 06:45:00,
2013-01-30 01:50:00,48.9,48.1,29.98,South,181,4.0,4.0,97,0.00,,,0.00,Wunderground v.1.15,2013-01-30 06:50:00,
2013-01-30 01:55:00,48.7,47.9,29.98,SSW,202,3.0,13.0,97,0.00,,,0.00,Wunderground v.1.15,2013-01-30 06:55:00,
2013-01-30 02:05:00,48.4,47.6,29.97,SW,232,2.0,13.0,97,0.00,,,0.00,Wunderground v.1.15,2013-01-30 07:05:00,
2013-01-30 02:10:00,48.4,47.6,29.97,South,189,2.0,2.0,97,0.00,,,0.00,Wunderground v.1.15,2013-01-30 07:10:00,
2013-01-30 02:15:00,48.5,47.7,29.97,South,180,2.0,11.0,97,0.00,,,0.00,Wunderground v.1.15,2013-01-30 07:15:00,
2013-01-30 02:20:00,48.3,47.5,29.97,SSW,199,3.0,3.0,97,0.00,,,0.00,Wunderground v.1.15,2013-01-30 07:20:00,
2013-01-30 02:25:00,48.1,47.3,29.96,South,184,3.0,13.0,97,0.00,,,0.00,Wunderground v.1.15,2013-01-30 07:25:00,
2013-01-30 02:35:00,47.9,47.1,29.96,South,184,2.0,13.0,97,0.00,,,0.00,Wunderground v.1.15,2013-01-30 07:35:00,
2013-01-30 02:40:00,47.8,47.0,29.96,SE,130,3.0,13.0,97,0.00,,,0.00,Wunderground v.1.15,2013-01-30 07:40:00,
2013-01-30 02:45:00,47.7,46.9,29.95,SSW,195,2.0,13.0,97,0.00,,,0.00,Wunderground v.1.15,2013-01-30 07:45:00,
2013-01-30 02:50:00,47.5,46.7,29.95,SSE,149,2.0,2.0,97,0.00,,,0.00,Wunderground v.1.15,2013-01-30 07:50:00,
2013-01-30 02:55:00,47.2,46.4,29.95,SSW,203,2.0,5.0,97,0.00,,,0.00,Wunderground v.1.15,2013-01-30 07:55:00,
2013-01-30 03:05:00,46.8,46.0,29.95,SSE,167,1.0,13.0,97,0.00,,,0.00,Wunderground v.1.15,2013-01-30 08:05:00,
2013-01-30 03:10:00,46.7,45.9,29.94,SSW,193,1.0,1.0,97,0.00,,,0.00,Wunderground v.1.15,2013-01-30 08:10:00,
2013-01-30 03:15:00,46.5,45.7,29.94,SSE,159,2.0,4.0,97,0.00,,,0.00,Wunderground v.1.15,2013-01-30 08:15:00,
2013-01-30 03:25:00,46.4,45.6,29.94,South,173,1.0,13.0,97,0.00,,,0.00,Wunderground v.1.15,2013-01-30 08:25:00,
2013-01-30 03:35:00,46.3,45.5,29.94,South,186,1.0,13.0,97,0.00,,,0.00,Wunderground v.1.15,2013-01-30 08:35:00,
2013-01-30 03:40:00,46.5,45.7,29.93,South,186,1.0,13.0,97,0.00,,,0.00,Wunderground v.1.15,2013-01-30 08:40:00,
2013-01-30 03:45:00,46.5,45.7,29.93,SSW,192,1.0,13.0,97,0.00,,,0.00,Wunderground v.1.15,2013-01-30 08:45:00,
2013-01-30 03:55:00,46.5,45.7,29.93,South,189,1.0,13.0,97,0.00,,,0.00,Wunderground v.1.15,2013-01-30 08:55:00,
2013-01-30 04:00:00,46.3,45.5,29.92,South,177,1.0,1.0,97,0.00,,,0.00,Wunderground v.1.15,2013-01-30 09:00:00,
2013-01-30 04:05:00,46.2,45.4,29.92,ESE,119,1.0,13.0,97,0.00,,,0.00,Wunderground v.1.15,2013-01-30 09:05:00,
2013-01-30 04:10:00,46.2,45.4,29.91,South,183,1.0,1.0,97,0.00,,,0.00,Wunderground v.1.15,2013-01-30 09:10:00,
2013-01-30 04:15:00,46.3,45.5,29.92,South,187,2.0,2.0,97,0.00,,,0.00,Wunderground v.1.15,2013-01-30 09:15:00,
2013-01-30 04:25:00,46.5,45.7,29.91,SSW,211,2.0,13.0,97,0.00,,,0.00,Wunderground v.1.15,2013-01-30 09:25:00,
2013-01-30 04:35:00,46.5,45.7,29.91,SSE,150,1.0,13.0,97,0.00,,,0.00,Wunderground v.1.15,2013-01-30 09:35:00,
2013-01-30 04:40:00,46.5,45.7,29.91,SSW,194,2.0,2.0,97,0.00,,,0.00,Wunderground v.1.15,2013-01-30 09:40:00,
2013-01-30 04:45:00,46.6,45.8,29.91,SSW,194,1.0,13.0,97,0.00,,,0.00,Wunderground v.1.15,2013-01-30 09:45:00,
2013-01-30 04:55:00,46.9,46.1,29.91,South,191,1.0,13.0,97,0.00,,,0.00,Wunderground v.1.15,2013-01-30 09:55:00,
2013-01-30 05:00:00,46.9,46.1,29.91,ESE,115,1.0,1.0,97,0.00,,,0.00,Wunderground v.1.15,2013-01-30 10:00:00,
2013-01-30 05:05:00,46.9,46.1,29.90,South,178,1.0,13.0,97,0.00,,,0.00,Wunderground v.1.15,2013-01-30 10:05:00,
2013-01-30 05:10:00,46.9,46.1,29.90,SSE,150,1.0,13.0,97,0.00,,,0.00,Wunderground v.1.15,2013-01-30 10:10:00,
2013-01-30 05:15:00,46.8,46.0,29.90,South,188,1.0,13.0,97,0.00,,,0.00,Wunderground v.1.15,2013-01-30 10:15:00,
2013-01-30 05:25:00,46.7,45.9,29.90,SW,214,1.0,13.0,97,0.00,,,0.00,Wunderground v.1.15,2013-01-30 10:25:00,
2013-01-30 05:30:00,46.7,45.9,29.90,SSW,203,1.0,13.0,97,0.00,,,0.00,Wunderground v.1.15,2013-01-30 10:30:00,
2013-01-30 05:35:00,46.7,45.9,29.90,SE,134,1.0,13.0,97,0.00,,,0.00,Wunderground v.1.15,2013-01-30 10:35:00,
2013-01-30 05:45:00,46.8,46.0,29.90,South,191,1.0,13.0,97,0.00,,,0.00,Wunderground v.1.15,2013-01-30 10:45:00,
2013-01-30 05:50:00,46.9,46.1,29.90,South,180,1.0,1.0,97,0.00,,,0.00,Wunderground v.1.15,2013-01-30 10:50:00,
2013-01-30 05:55:00,46.8,46.0,29.89,South,171,1.0,13.0,97,0.00,,,0.00,Wunderground v.1.15,2013-01-30 10:55:00,
2013-01-30 06:00:00,46.7,45.9,29.89,South,179,1.0,1.0,97,0.00,,,0.00,Wunderground v.1.15,2013-01-30 11:00:00,
2013-01-30 06:05:00,46.7,45.9,29.89,South,187,1.0,3.0,97,0.00,,,0.00,Wunderground v.1.15,2013-01-30 11:05:00,
2013-01-30 06:15:00,46.8,46.0,29.89,South,175,1.0,13.0,97,0.00,,,0.00,Wunderground v.1.15,2013-01-30 11:15:00,
2013-01-30 06:20:00,46.7,45.9,29.89,SE,140,1.0,13.0,97,0.00,,,0.00,Wunderground v.1.15,2013-01-30 11:20:00,
2013-01-30 06:25:00,46.8,46.0,29.89,SSW,200,1.0,13.0,97,0.00,,,0.00,Wunderground v.1.15,2013-01-30 11:25:00,
2013-01-30 06:30:00,47.0,46.2,29.89,SSE,158,1.0,13.0,97,0.00,,,0.00,Wunderground v.1.15,2013-01-30 11:30:00,
2013-01-30 06:40:00,47.3,46.5,29.89,South,173,1.0,1.0,97,0.00,,,0.00,Wunderground v.1.15,2013-01-30 11:40:00,
2013-01-30 06:45:00,47.3,46.5,29.89,SSW,192,1.0,13.0,97,0.00,,,0.00,Wunderground v.1.15,2013-01-30 11:45:00,
2013-01-30 06:50:00,47.4,46.6,29.89,SSE,168,1.0,13.0,97,0.00,,,0.00,Wunderground v.1.15,2013-01-30 11:50:00,
2013-01-30 06:55:00,47.4,46.6,29.88,SSW,206,1.0,13.0,97,0.00,,,0.00,Wunderground v.1.15,2013-01-30 11:55:00,
2013-01-30 07:05:00,47.1,46.3,29.88,SSE,167,1.0,13.0,97,0.00,,,0.00,Wunderground v.1.15,2013-01-30 12:05:00,
2013-01-30 07:10:00,46.8,46.0,29.88,SSW,205,1.0,1.0,97,0.00,,,0.00,Wunderground v.1.15,2013-01-30 12:10:00,
2013-01-30 07:15:00,46.7,45.9,29.88,South,175,1.0,13.0,97,0.00,,,0.00,Wunderground v.1.15,2013-01-30 12:15:00,
2013-01-30 07:20:00,46.7,45.9,29.88,South,191,1.0,1.0,97,0.00,,,0.00,Wunderground v.1.15,2013-01-30 12:20:00,
2013-01-30 07:25:00,46.8,46.0,29.88,South,187,1.0,2.0,97,0.00,,,0.00,Wunderground v.1.15,2013-01-30 12:25:00,
2013-01-30 07:35:00,47.0,46.2,29.87,South,186,1.0,2.0,97,0.00,,,0.00,Wunderground v.1.15,2013-01-30 12:35:00,
2013-01-30 07:40:00,47.2,46.4,29.87,SE,136,1.0,13.0,97,0.00,,,0.00,Wunderground v.1.15,2013-01-30 12:40:00,
2013-01-30 07:45:00,47.5,46.7,29.87,SE,144,1.0,13.0,97,0.00,,,0.00,Wunderground v.1.15,2013-01-30 12:45:00,
2013-01-30 07:50:00,47.7,46.9,29.87,South,191,2.0,13.0,97,0.00,,,0.00,Wunderground v.1.15,2013-01-30 12:50:00,
2013-01-30 08:00:00,48.0,47.2,29.87,South,179,2.0,2.0,97,0.00,,,0.00,Wunderground v.1.15,2013-01-30 13:00:00,
2013-01-30 08:05:00,48.2,47.4,29.87,SSW,194,2.0,13.0,97,0.00,,,0.00,Wunderground v.1.15,2013-01-30 13:05:00,
2013-01-30 08:10:00,48.3,47.5,29.86,South,173,2.0,2.0,97,0.00,,,0.00,Wunderground v.1.15,2013-01-30 13:10:00,
2013-01-30 08:15:00,48.6,48.1,29.86,SSW,213,2.0,13.0,98,0.00,,,0.00,Wunderground v.1.15,2013-01-30 13:15:00,
2013-01-30 08:20:00,48.9,48.1,29.86,SW,217,2.0,2.0,97,0.00,,,0.00,Wunderground v.1.15,2013-01-30 13:20:00,
2013-01-30 08:30:00,49.3,48.8,29.86,SSE,163,2.0,2.0,98,0.00,,,0.00,Wunderground v.1.15,2013-01-30 13:30:00,
2013-01-30 08:35:00,49.5,48.7,29.86,SSW,199,2.0,13.0,97,0.00,,,0.00,Wunderground v.1.15,2013-01-30 13:35:00,
2013-01-30 08:40:00,49.6,48.8,29.86,SE,142,2.0,13.0,97,0.00,,,0.00,Wunderground v.1.15,2013-01-30 13:40:00,
2013-01-30 08:50:00,49.5,48.7,29.86,South,169,2.0,2.0,97,0.00,,,0.00,Wunderground v.1.15,2013-01-30 13:50:00,
2013-01-30 08:55:00,49.8,49.0,29.85,South,184,2.0,13.0,97,0.00,,,0.00,Wunderground v.1.15,2013-01-30 13:55:00,
2013-01-30 09:00:00,50.0,49.2,29.86,SSE,165,2.0,2.0,97,0.00,,,0.00,Wunderground v.1.15,2013-01-30 14:00:00,
2013-01-30 09:05:00,50.2,49.4,29.86,SW,215,2.0,13.0,97,0.00,,,0.00,Wunderground v.1.15,2013-01-30 14:05:00,
2013-01-30 09:10:00,50.3,49.5,29.85,SW,225,2.0,13.0,97,0.00,,,0.00,Wunderground v.1.15,2013-01-30 14:10:00,
2013-01-30 09:20:00,50.3,49.5,29.85,South,176,2.0,2.0,97,0.00,,,0.00,Wunderground v.1.15,2013-01-30 14:20:00,
2013-01-30 09:25:00,50.6,49.8,29.85,SSW,195,3.0,3.0,97,0.00,,,0.00,Wunderground v.1.15,2013-01-30 14:25:00,
2013-01-30 09:30:00,50.9,50.1,29.85,SSW,205,3.0,13.0,97,0.00,,,0.00,Wunderground v.1.15,2013-01-30 14:30:00,
2013-01-30 09:35:00,51.3,50.5,29.85,South,182,3.0,13.0,97,0.00,,,0.00,Wunderground v.1.15,2013-01-30 14:35:00,
2013-01-30 09:45:00,51.7,50.9,29.84,SE,128,3.0,13.0,97,0.00,,,0.00,Wunderground v.1.15,2013-01-30 14:45:00,
2013-01-30 09:50:00,51.5,50.7,29.84,SSW,209,4.0,13.0,97,0.00,,,0.00,Wunderground v.1.15,2013-01-30 14:50:00,
2013-01-30 09:55:00,51.2,50.4,29.84,SW,224,4.0,13.0,97,0.00,,,0.00,Wunderground v.1.15,2013-01-30 14:55:00,
2013-01-30 10:00:00,51.1,50.3,29.84,SSW,203,4.0,13.0,97,0.00,,,0.00,Wunderground v.1.15,2013-01-30 15:00:00,
2013-01-30 10:05:00,51.3,50.5,29.84,South,182,4.0,13.0,97,0.00,,,0.00,Wunderground v.1.15,2013-01-30 15:05:00,
2013-01-30 10:15:00,51.0,50.2,29.83,SSE,156,2.0,13.0,97,0.00,,,0.00,Wunderground v.1.15,2013-01-30 15:15:00,
2013-01-30 10:20:00,50.9,50.1,29.83,South,175,3.0,3.0,97,0.00,,,0.00,Wunderground v.1.15,2013-01-30 15:20:00,
2013-01-30 10:25:00,51.2,50.4,29.83,SE,142,2.0,13.0,97,0.00,,,0.00,Wunderground v.1.15,2013-01-30 15:25:00,
2013-01-30 10:30:00,51.6,50.8,29.83,South,184,3.0,3.0,97,0.00,,,0.00,Wunderground v.1.15,2013-01-30 15:30:00,
2013-01-30 10:40:00,52.3,51.5,29.82,SSW,206,2.0,13.0,97,0.00,,,0.00,Wunderground v.1.15,2013-01-30 15:40:00,
2013-01-30 10:45:00,52.2,51.4,29.82,East,98,2.0,13.0,97,0.00,,,0.00,Wunderground v.1.15,2013-01-30 15:45:00,
2013-01-30 10:50:00,52.1,51.3,29.81,SSE,163,3.0,13.0,97,0.00,,,0.00,Wunderground v.1.15,2013-01-30 15:50:00,
2013-01-30 10:55:00,52.0,51.2,29.80,South,181,4.0,13.0,97,0.00,,,0.00,Wunderground v.1.15,2013-01-30 15:55:00,
2013-01-30 11:00:00,52.1,51.3,29.79,SE,130,4.0,13.0,97,0.00,,,0.00,Wunderground v.1.15,2013-01-30 16:00:00,
2013-01-30 11:10:00,52.6,51.8,29.80,South,173,5.0,5.0,97,0.00,,,0.00,Wunderground v.1.15,2013-01-30 16:10:00,
2013-01-30 11:15:00,53.0,52.5,29.80,SW,232,5.0,13.0,98,0.00,,,0.00,Wunderground v.1.15,2013-01-30 16:15:00,
2013-01-30 11:20:00,53.5,52.9,29.80,South,173,5.0,5.0,98,0.00,,,0.00,Wunderground v.1.15,2013-01-30 16:20:00,
2013-01-30 11:25:00,53.5,52.7,29.80,South,188,5.0,7.0,97,0.00,,,0.00,Wunderground v.1.15,2013-01-30 16:25:00,
2013-01-30 11:35:00,53.8,53.0,29.80,SSW,194,4.0,13.0,97,0.00,,,0.00,Wunderground v.1.15,2013-01-30 16:35:00,
2013-01-30 11:40:00,53.7,52.9,29.79,SSW,213,4.0,4.0,97,0.00,,,0.00,Wunderground v.1.15,2013-01-30 16:40:00,
2013-01-30 11:45:00,53.5,52.7,29.79,SSW,202,5.0,5.0,97,0.00,,,0.00,Wunderground v.1.15,2013-01-30 16:45:00,
2013-01-30 11:50:00,53.3,52.5,29.78,SSW,195,4.0,4.0,97,0.00,,,0.00,Wunderground v.1.15,2013-01-30 16:50:00,
2013-01-30 11:55:00,53.2,52.1,29.77,SSE,160,5.0,12.0,96,0.00,,,0.00,Wunderground v.1.15,2013-01-30 16:55:00,
2013-01-30 12:05:00,53.6,52.5,29.76,SSW,209,5.0,13.0,96,0.00,,,0.00,Wunderground v.1.15,2013-01-30 17:05:00,
2013-01-30 12:10:00,54.1,53.0,29.75,South,173,5.0,13.0,96,0.00,,,0.00,Wunderground v.1.15,2013-01-30 17:10:00,
2013-01-30 12:15:00,54.5,53.4,29.75,South,179,5.0,13.0,96,0.00,,,0.00,Wunderground v.1.15,2013-01-30 17:15:00,
2013-01-30 12:25:00,55.6,54.2,29.75,SE,143,5.0,13.0,95,0.00,,,0.00,Wunderground v.1.15,2013-01-30 17:25:00,
2013-01-30 12:30:00,56.4,54.7,29.74,SE,137,5.0,5.0,94,0.00,,,0.00,Wunderground v.1.15,2013-01-30 17:30:00,
2013-01-30 12:35:00,56.8,54.8,29.73,SSW,213,6.0,6.0,93,0.00,,,0.00,Wunderground v.1.15,2013-01-30 17:35:00,
2013-01-30 12:40:00,57.1,54.8,29.73,SSW,199,6.0,13.0,92,0.00,,,0.00,Wunderground v.1.15,2013-01-30 17:40:00,
2013-01-30 12:45:00,57.5,55.2,29.73,SSW,192,5.0,13.0,92,0.00,,,0.00,Wunderground v.1.15,2013-01-30 17:45:00,
2013-01-30 12:55:00,57.7,54.8,29.72,SE,146,4.0,13.0,90,0.00,,,0.00,Wunderground v.1.15,2013-01-30 17:55:00,
2013-01-30 13:00:00,56.9,54.0,29.73,SSE,165,4.0,13.0,90,0.00,,,0.00,Wunderground v.1.15,2013-01-30 18:00:00,
2013-01-30 13:05:00,56.6,54.0,29.72,SSW,198,4.0,13.0,91,0.00,,,0.00,Wunderground v.1.15,2013-01-30 18:05:00,
2013-01-30 13:10:00,56.4,53.8,29.72,SE,145,3.0,13.0,91,0.00,,,0.00,Wunderground v.1.15,2013-01-30 18:10:00,
2013-01-30 13:15:00,55.9,53.3,29.71,South,190,3.0,13.0,91,0.00,,,0.00,Wunderground v.1.15,2013-01-30 18:15:00,
2013-01-30 13:25:00,54.9,52.6,29.71,SW,219,4.0,13.0,92,0.00,,,0.00,Wunderground v.1.15,2013-01-30 18:25:00,
2013-01-30 13:30:00,54.9,52.6,29.70,SSW,210,4.0,4.0,92,0.00,,,0.00,Wunderground v.1.15,2013-01-30 18:30:00,
2013-01-30 13:35:00,55.3,53.3,29.71,SE,137,3.0,13.0,93,0.00,,,0.00,Wunderground v.1.15,2013-01-30 18:35:00,
2013-01-30 13:40:00,55.9,53.9,29.70,South,180,3.0,13.0,93,0.00,,,0.00,Wunderground v.1.15,2013-01-30 18:40:00,
2013-01-30 13:45:00,56.2,53.9,29.69,SSW,211,4.0,13.0,92,0.00,,,0.00,Wunderground v.1.15,2013-01-30 18:45:00,
2013-01-30 13:55:00,55.8,53.2,29.67,South,186,5.0,13.0,91,0.00,,,0.00,Wunderground v.1.15,2013-01-30 18:55:00,
2013-01-30 14:00:00,55.5,53.2,29.67,South,173,5.0,13.0,92,0.00,,,0.00,Wunderground v.1.15,2013-01-30 19:00:00,
2013-01-30 14:05:00,55.2,53.2,29.66,South,171,6.0,13.0,93,0.00,,,0.00,Wunderground v.1.15,2013-01-30 19:05:00,
2013-01-30 14:15:00,56.2,54.5,29.67,SSE,165,6.0,13.0,94,0.00,,,0.00,Wunderground v.1.15,2013-01-30 19:15:00,
2013-01-30 14:20:00,57.5,55.5,29.66,SSE,161,5.0,13.0,93,0.00,,,0.00,Wunderground v.1.15,2013-01-30 19:20:00,
2013-01-30 14:25:00,58.7,56.4,29.66,South,186,6.0,13.0,92,0.00,,,0.00,Wunderground v.1.15,2013-01-30 19:25:00,
2013-01-30 14:30:00,59.2,56.3,29.66,SW,233,6.0,6.0,90,0.00,,,0.00,Wunderground v.1.15,2013-01-30 19:30:00,
2013-01-30 14:40:00,58.6,55.4,29.66,SSW,196,7.0,7.0,89,0.00,,,0.00,Wunderground v.1.15,2013-01-30 19:40:00,
2013-01-30 14:45:00,57.9,55.0,29.66,South,173,7.0,13.0,90,0.00,,,0.00,Wunderground v.1.15,2013-01-30 19:45:00,
2013-01-30 14:50:00,57.4,54.5,29.66,SW,218,7.0,13.0,90,0.00,,,0.00,Wunderground v.1.15,2013-01-30 19:50:00,
2013-01-30 14:55:00,57.2,54.6,29.66,South,188,7.0,13.0,91,0.00,,,0.00,Wunderground v.1.15,2013-01-30 19:55:00,
2013-01-30 15:00:00,57.2,54.6,29.67,SSW,210,6.0,6.0,91,0.00,,,0.00,Wunderground v.1.15,2013-01-30 20:00:00,
2013-01-30 15:10:00,57.8,55.2,29.67,WSW,242,7.0,7.0,91,0.00,,,0.00,Wunderground v.1.15,2013-01-30 20:10:00,
2013-01-30 15:15:00,58.1,55.5,29.67,SW,232,8.0,11.0,91,0.00,,,0.00,Wunderground v.1.15,2013-01-30 20:15:00,
2013-01-30 15:20:00,58.4,55.8,29.67,South,177,8.0,8.0,91,0.00,,,0.00,Wunderground v.1.15,2013-01-30 20:20:00,
2013-01-30 15:25:00,58.9,56.0,29.67,SSW,213,8.0,13.0,90,0.00,,,0.00,Wunderground v.1.15,2013-01-30 20:25:00,
2013-01-30 15:30:00,58.7,55.5,29.67,South,172,7.0,13.0,89,0.00,,,0.00,Wunderground v.1.15,2013-01-30 20:30:00,
2013-01-30 15:40:00,58.6,55.7,29.68,South,180,7.0,15.0,90,0.00,,,0.00,Wunderground v.1.15,2013-01-30 20:40:00,
2013-01-30 15:45:00,59.3,56.1,29.67,SW,227,7.0,15.0,89,0.00,,,0.00,Wunderground v.1.15,2013-01-30 20:45:00,
2013-01-30 15:50:00,59.8,55.9,29.67,SE,132,7.0,7.0,87,0.00,,,0.00,Wunderground v.1.15,2013-01-30 20:50:00,
2013-01-30 15:55:00,60.1,56.2,29.66,SSE,152,7.0,11.0,87,0.00,,,0.00,Wunderground v.1.15,2013-01-30 20:55:00,
2013-01-30 16:00:00,60.4,56.2,29.66,SW,234,6.0,6.0,86,0.00,,,0.00,Wunderground v.1.15,2013-01-30 21:00:00,
2013-01-30 16:10:00,59.7,55.8,29.65,SW,217,6.0,13.0,87,0.00,,,0.00,Wunderground v.1.15,2013-01-30 21:10:00,
2013-01-30 16:15:00,59.5,55.9,29.65,SSW,192,7.0,13.0,88,0.00,,,0.00,Wunderground v.1.15,2013-01-30 21:15:00,
2013-01-30 16:20:00,59.2,55.6,29.65,SSW,207,7.0,13.0,88,0.00,,,0.00,Wunderground v.1.15,2013-01-30 21:20:00,
2013-01-30 16:25:00,59.0,55.4,29.65,South,191,6.0,13.0,88,0.00,,,0.00,Wunderground v.1.15,2013-01-30 21:25:00,
2013-01-30 16:35:00,58.5,55.3,29.65,SSW,200,5.0,13.0,89,0.00,,,0.00,Wunderground v.1.15,2013-01-30 21:35:00,
2013-01-30 16:40:00,58.3,55.1,29.64,South,172,6.0,6.0,89,0.00,,,0.00,Wunderground v.1.15,2013-01-30 21:40:00,
2013-01-30 16:45:00,58.2,55.3,29.64,South,175,6.0,13.0,90,0.00,,,0.00,Wunderground v.1.15,2013-01-30 21:45:00,
2013-01-30 16:50:00,58.0,55.1,29.64,South,173,5.0,5.0,90,0.00,,,0.00,Wunderground v.1.15,2013-01-30 21:50:00,
2013-01-30 17:00:00,58.1,55.5,29.63,WNW,288,6.0,13.0,91,0.00,,,0.00,Wunderground v.1.15,2013-01-30 22:00:00,
2013-01-30 17:05:00,58.2,55.6,29.63,ESE,111,7.0,13.0,91,0.00,,,0.00,Wunderground v.1.15,2013-01-30 22:05:00,
2013-01-30 17:10:00,58.0,55.4,29.62,West,259,7.0,7.0,91,0.00,,,0.00,Wunderground v.1.15,2013-01-30 22:10:00,
2013-01-30 17:15:00,57.6,55.0,29.63,SSW,209,8.0,8.0,91,0.00,,,0.00,Wunderground v.1.15,2013-01-30 22:15:00,
2013-01-30 17:25:00,56.9,54.6,29.62,South,180,7.0,12.0,92,0.00,,,0.00,Wunderground v.1.15,2013-01-30 22:25:00,
2013-01-30 17:30:00,56.8,54.5,29.62,South,176,7.0,7.0,92,0.00,,,0.00,Wunderground v.1.15,2013-01-30 22:30:00,
2013-01-30 17:35:00,56.6,54.6,29.63,SW,232,7.0,13.0,93,0.00,,,0.00,Wunderground v.1.15,2013-01-30 22:35:00,
2013-01-30 17:40:00,56.2,54.2,29.63,SSE,163,8.0,8.0,93,0.00,,,0.00,Wunderground v.1.15,2013-01-30 22:40:00,
2013-01-30 17:50:00,55.8,53.8,29.63,SW,229,7.0,7.0,93,0.00,,,0.00,Wunderground v.1.15,2013-01-30 22:50:00,
2013-01-30 17:55:00,55.6,53.6,29.63,SSW,198,6.0,13.0,93,0.00,,,0.00,Wunderground v.1.15,2013-01-30 22:55:00,
2013-01-30 18:00:00,55.4,53.7,29.62,SE,146,6.0,18.0,94,0.00,,,0.00,Wunderground v.1.15,2013-01-30 23:00:00,
2013-01-30 18:05:00,55.2,53.5,29.62,SE,126,6.0,18.0,94,0.00,,,0.00,Wunderground v.1.15,2013-01-30 23:05:00,
2013-01-30 18:10:00,55.0,53.3,29.62,South,180,6.0,6.0,94,0.00,,,0.00,Wunderground v.1.15,2013-01-30 23:10:00,
2013-01-30 18:20:00,54.6,52.9,29.62,SSW,201,8.0,13.0,94,0.00,,,0.00,Wunderground v.1.15,2013-01-30 23:20:00,
2013-01-30 18:25:00,54.4,52.7,29.61,SSW,211,8.0,17.0,94,0.00,,,0.00,Wunderground v.1.15,2013-01-30 23:25:00,
2013-01-30 18:30:00,54.3,52.9,29.62,South,179,8.0,8.0,95,0.00,,,0.00,Wunderground v.1.15,2013-01-30 23:30:00,
2013-01-30 18:35:00,54.4,53.0,29.61,ESE,117,7.0,13.0,95,0.00,,,0.00,Wunderground v.1.15,2013-01-30 23:35:00,
2013-01-30 18:40:00,54.4,53.0,29.61,SSW,192,7.0,7.0,95,0.00,,,0.00,Wunderground v.1.15,2013-01-30 23:40:00,
2013-01-30 18:50:00,54.4,53.0,29.60,ESE,109,8.0,13.0,95,0.00,,,0.00,Wunderground v.1.15,2013-01-30 23:50:00,
2013-01-30 18:55:00,54.6,53.2,29.60,South,175,8.0,13.0,95,0.00,,,0.00,Wunderground v.1.15,2013-01-30 23:55:00,
2013-01-30 19:00:00,54.5,53.1,29.60,ESE,112,8.0,8.0,95,0.00,,,0.00,Wunderground v.1.15,2013-01-31 00:00:00,
2013-01-30 19:05:00,54.6,53.2,29.59,ESE,119,8.0,13.0,95,0.00,,,0.00,Wunderground v.1.15,2013-01-31 00:05:00,
2013-01-30 19:10:00,54.6,53.2,29.60,SW,225,9.0,13.0,95,0.00,,,0.00,Wunderground v.1.15,2013-01-31 00:10:00,
2013-01-30 19:20:00,54.5,53.1,29.60,South,172,8.0,13.0,95,0.00,,,0.00,Wunderground v.1.15,2013-01-31 00:20:00,
2013-01-30 19:25:00,54.4,53.0,29.60,WSW,240,8.0,13.0,95,0.00,,,0.00,Wunderground v.1.15,2013-01-31 00:25:00,
2013-01-30 19:30:00,54.2,52.8,29.59,SSW,202,8.0,13.0,95,0.00,,,0.00,Wunderground v.1.15,2013-01-31 00:30:00,
2013-01-30 19:35:00,54.2,52.8,29.59,South,190,8.0,13.0,95,0.00,,,0.00,Wunderground v.1.15,2013-01-31 00:35:00,
2013-01-30 19:45:00,54.2,53.1,29.58,SSW,194,8.0,17.0,96,0.00,,,0.00,Wunderground v.1.15,2013-01-31 00:45:00,
2013-01-30 19:50:00,54.2,53.1,29.58,SSE,162,8.0,8.0,96,0.00,,,0.00,Wunderground v.1.15,2013-01-31 00:50:00,
2013-01-30 19:55:00,54.1,53.0,29.58,South,178,9.0,16.0,96,0.00,,,0.00,Wunderground v.1.15,2013-01-31 00:55:00,
2013-01-30 20:00:00,54.0,52.9,29.57,SSW,194,9.0,9.0,96,0.00,,,0.00,Wunderground v.1.15,2013-01-31 01:00:00,
2013-01-30 20:10:00,53.6,52.5,29.56,SSW,192,8.0,8.0,96,0.00,,,0.00,Wunderground v.1.15,2013-01-31 01:10:00,
2013-01-30 20:15:00,53.4,52.3,29.56,WSW,237,6.0,13.0,96,0.00,,,0.00,Wunderground v.1.15,2013-01-31 01:15:00,
2013-01-30 20:20:00,53.3,52.5,29.56,South,178,6.0,13.0,97,0.00,,,0.00,Wunderground v.1.15,2013-01-31 01:20:00,
2013-01-30 20:25:00,53.2,52.4,29.55,SSW,210,7.0,13.0,97,0.00,,,0.00,Wunderground v.1.15,2013-01-31 01:25:00,
2013-01-30 20:35:00,53.3,52.5,29.55,SSW,213,8.0,14.0,97,0.00,,,0.00,Wunderground v.1.15,2013-01-31 01:35:00,
2013-01-30 20:40:00,53.3,52.5,29.55,SSW,192,8.0,13.0,97,0.00,,,0.00,Wunderground v.1.15,2013-01-31 01:40:00,
2013-01-30 20:45:00,53.3,52.5,29.56,SSW,199,7.0,13.0,97,0.00,,,0.00,Wunderground v.1.15,2013-01-31 01:45:00,
2013-01-30 20:50:00,53.4,52.6,29.55,South,179,7.0,7.0,97,0.00,,,0.00,Wunderground v.1.15,2013-01-31 01:50:00,
2013-01-30 20:55:00,53.3,52.5,29.55,SE,136,7.0,11.0,97,0.00,,,0.00,Wunderground v.1.15,2013-01-31 01:55:00,
2013-01-30 21:05:00,53.3,52.5,29.54,SSW,208,9.0,12.0,97,0.00,,,0.00,Wunderground v.1.15,2013-01-31 02:05:00,
2013-01-30 21:10:00,53.3,52.5,29.53,SE,139,8.0,13.0,97,0.00,,,0.00,Wunderground v.1.15,2013-01-31 02:10:00,
2013-01-30 21:15:00,53.3,52.8,29.52,South,173,7.0,13.0,98,0.00,,,0.00,Wunderground v.1.15,2013-01-31 02:15:00,
2013-01-30 21:20:00,53.5,52.9,29.52,SE,134,7.0,7.0,98,0.00,,,0.00,Wunderground v.1.15,2013-01-31 02:20:00,
2013-01-30 21:25:00,53.5,52.9,29.51,South,189,7.0,10.0,98,0.00,,,0.00,Wunderground v.1.15,2013-01-31 02:25:00,
2013-01-30 21:35:00,53.8,53.2,29.51,SW,222,7.0,10.0,98,0.00,,,0.00,Wunderground v.1.15,2013-01-31 02:35:00,
2013-01-30 21:40:00,54.0,53.4,29.50,South,171,7.0,13.0,98,0.00,,,0.00,Wunderground v.1.15,2013-01-31 02:40:00,
2013-01-30 21:45:00,54.1,53.5,29.50,South,169,7.0,18.0,98,0.00,,,0.00,Wunderground v.1.15,2013-01-31 02:45:00,
2013-01-30 21:55:00,54.4,53.8,29.49,SSE,167,9.0,9.0,98,0.00,,,0.00,Wunderground v.1.15,2013-01-31 02:55:00,
2013-01-30 22:00:00,54.6,54.0,29.49,SSW,195,9.0,13.0,98,0.00,,,0.00,Wunderground v.1.15,2013-01-31 03:00:00,
2013-01-30 22:05:00,54.5,53.9,29.48,SSE,167,10.0,18.0,98,0.00,,,0.00,Wunderground v.1.15,2013-01-31 03:05:00,
2013-01-30 22:10:00,54.5,53.9,29.48,SSW,209,9.0,13.0,98,0.00,,,0.00,Wunderground v.1.15,2013-01-31 03:10:00,
2013-01-30 22:15:00,54.5,53.9,29.48,SSW,200,9.0,13.0,98,0.00,,,0.00,Wunderground v.1.15,2013-01-31 03:15:00,
2013-01-30 22:25:00,54.2,53.6,29.47,SE,140,9.0,13.0,98,0.00,,,0.00,Wunderground v.1.15,2013-01-31 03:25:00,
2013-01-30 22:30:00,54.2,53.6,29.47,South,187,8.0,13.0,98,0.00,,,0.00,Wunderground v.1.15,2013-01-31 03:30:00,
2013-01-30 22:35:00,54.5,53.9,29.46,South,178,8.0,13.0,98,0.00,,,0.00,Wunderground v.1.15,2013-01-31 03:35:00,
2013-01-30 22:40:00,54.6,54.0,29.45,SSE,159,9.0,9.0,98,0.00,,,0.00,Wunderground v.1.15,2013-01-31 03:40:00,
2013-01-30 22:45:00,54.6,54.0,29.45,South,179,9.0,12.0,98,0.00,,,0.00,Wunderground v.1.15,2013-01-31 03:45:00,
2013-01-30 22:55:00,54.6,54.0,29.45,WSW,237,9.0,13.0,98,0.00,,,0.00,Wunderground v.1.15,2013-01-31 03:55:00,
2013-01-30 23:00:00,54.8,54.2,29.45,SSE,165,8.0,8.0,98,0.00,,,0.00,Wunderground v.1.15,2013-01-31 04:00:00,
2013-01-30 23:05:00,54.9,54.3,29.44,South,185,9.0,14.0,98,0.00,,,0.00,Wunderground v.1.15,2013-01-31 04:05:00,
2013-01-30 23:10:00,54.8,54.2,29.44,South,187,10.0,10.0,98,0.00,,,0.00,Wunderground v.1.15,2013-01-31 04:10:00,
2013-01-30 23:15:00,54.7,54.1,29.44,South,180,10.0,13.0,98,0.00,,,0.00,Wunderground v.1.15,2013-01-31 04:15:00,
2013-01-30 23:25:00,54.9,54.3,29.43,SSW,198,10.0,10.0,98,0.00,,,0.00,Wunderground v.1.15,2013-01-31 04:25:00,
2013-01-30 23:30:00,54.9,54.3,29.42,SSW,206,11.0,11.0,98,0.00,,,0.00,Wunderground v.1.15,2013-01-31 04:30:00,
2013-01-30 23:35:00,55.0,54.4,29.42,SSW,205,10.0,13.0,98,0.00,,,0.00,Wunderground v.1.15,2013-01-31 04:35:00,
2013-01-30 23:45:00,55.5,54.9,29.41,SE,144,11.0,23.0,98,0.00,,,0.00,Wunderground v.1.15,2013-01-31 04:45:00,
2013-01-30 23:50:00,55.7,55.1,29.40,SSW,209,11.0,11.0,98,0.00,,,0.00,Wunderground v.1.15,2013-01-31 04:50:00,
2013-01-30 23:55:00,55.7,55.1,29.40,WSW,239,10.0,26.0,98,0.00,,,0.00,Wunderground v.1.15,2013-01-31 04:55:00,